Time;durP1;ratioP1;P1;durP2;ratioP2;P2;SDS_P1;SDS_P2;PMS_P1;PMS_P2;Temp;Humidity;BMP_temperature;BMP_pressure;BME280_temperature;BME280_humidity;BME280_pressure;Samples;Min_cycle;Max_cycle;Signal;HPM_P1;HPM_P2
2022/08/14 00:02:05;;;;;;;3.97;3.53;;;;;;;21.36;73.13;101380.63;4993475;28;20037;-79
2022/08/14 00:04:32;;;;;;;4.50;3.70;;;;;;;21.35;73.25;101383.47;5012171;28;20049;-80
2022/08/14 00:06:57;;;;;;;4.43;4.00;;;;;;;21.32;73.19;101379.19;4998883;28;20026;-80
2022/08/14 00:09:23;;;;;;;4.95;3.92;;;;;;;21.31;73.40;101380.16;5012506;28;20052;-78
2022/08/14 00:11:49;;;;;;;4.78;3.80;;;;;;;21.26;73.23;101380.56;5000225;28;20357;-79
2022/08/14 00:14:15;;;;;;;6.65;3.65;;;;;;;21.26;73.85;101382.38;5030600;28;20025;-78
2022/08/14 00:16:41;;;;;;;5.35;3.90;;;;;;;21.23;73.62;101371.84;4988422;28;20921;-79
2022/08/14 00:19:07;;;;;;;4.68;3.88;;;;;;;21.21;73.79;101372.00;5015852;28;21226;-79
2022/08/14 00:21:32;;;;;;;4.43;4.03;;;;;;;21.18;74.32;101369.53;5007235;28;20229;-78
2022/08/14 00:23:57;;;;;;;5.63;3.85;;;;;;;21.15;74.31;101364.44;4988561;28;20041;-79
2022/08/14 00:26:23;;;;;;;4.75;3.80;;;;;;;21.12;74.20;101362.84;5007436;28;20040;-79
2022/08/14 00:28:52;;;;;;;3.95;3.53;;;;;;;21.11;74.45;101362.97;5014781;28;20120;-79
2022/08/14 00:31:18;;;;;;;4.50;4.07;;;;;;;21.09;74.51;101359.53;5007918;28;20026;-78
2022/08/14 00:33:43;;;;;;;4.72;3.60;;;;;;;21.06;74.70;101357.97;5014682;28;20451;-79
2022/08/14 00:36:09;;;;;;;4.70;3.90;;;;;;;21.03;74.96;101356.38;5007785;28;20374;-78
2022/08/14 00:38:35;;;;;;;5.38;3.85;;;;;;;20.99;74.88;101360.31;5011540;28;20133;-78
2022/08/14 00:41:05;;;;;;;5.53;4.05;;;;;;;20.96;74.98;101352.47;5007866;28;20490;-79
2022/08/14 00:43:32;;;;;;;5.10;3.95;;;;;;;20.93;74.97;101354.56;5002428;28;20305;-79
2022/08/14 00:46:08;;;;;;;4.57;3.70;;;;;;;20.90;75.68;101344.91;5010592;28;20648;-79
2022/08/14 00:48:35;;;;;;;5.05;4.20;;;;;;;20.87;75.04;101345.16;5003978;28;20045;-79
2022/08/14 00:51:06;;;;;;;6.10;3.78;;;;;;;20.83;75.18;101344.53;5006135;28;20029;-79
2022/08/14 00:53:32;;;;;;;4.78;3.95;;;;;;;20.80;75.39;101343.94;4993787;28;20042;-79
2022/08/14 00:55:57;;;;;;;4.53;4.07;;;;;;;20.75;75.51;101337.06;5005645;28;20515;-79
2022/08/14 00:58:29;;;;;;;4.47;3.97;;;;;;;20.72;75.64;101337.34;4994989;28;20361;-79
2022/08/14 01:00:56;;;;;;;4.50;3.67;;;;;;;20.69;75.70;101342.13;4999653;28;20065;-79
2022/08/14 01:03:21;;;;;;;7.28;4.53;;;;;;;20.66;75.99;101332.44;5022582;28;20029;-79
2022/08/14 01:05:49;;;;;;;5.00;4.50;;;;;;;20.64;76.17;101334.38;5010705;28;20087;-79
2022/08/14 01:08:19;;;;;;;5.38;3.97;;;;;;;20.60;76.44;101322.19;5019884;28;20492;-79
2022/08/14 01:10:50;;;;;;;4.97;4.22;;;;;;;20.57;76.46;101325.09;5022305;28;20475;-79
2022/08/14 01:13:19;;;;;;;4.68;4.28;;;;;;;20.55;76.66;101321.69;5020676;28;20033;-79
2022/08/14 01:15:47;;;;;;;4.95;4.22;;;;;;;20.53;76.75;101327.19;5019140;28;20033;-80
2022/08/14 01:21:10;;;;;;;4.95;4.20;;;;;;;20.49;77.23;101325.75;5018913;28;20584;-79
2022/08/14 01:23:39;;;;;;;5.50;4.22;;;;;;;20.47;77.42;101320.47;4995698;28;20037;-79
2022/08/14 01:26:05;;;;;;;4.75;4.10;;;;;;;20.46;77.66;101315.22;5019035;28;20484;-78
2022/08/14 01:28:36;;;;;;;4.80;4.28;;;;;;;20.43;78.00;101316.31;4997169;28;20028;-79
2022/08/14 01:31:23;;;;;;;5.23;4.57;;;;;;;20.41;78.09;101310.22;5013516;28;20088;-79
2022/08/14 01:33:50;;;;;;;4.88;4.28;;;;;;;20.38;78.14;101309.59;5015242;28;20031;-80
2022/08/14 01:36:18;;;;;;;4.70;4.18;;;;;;;20.37;78.65;101307.91;5017546;28;20029;-79
2022/08/14 01:38:47;;;;;;;5.45;4.50;;;;;;;20.35;78.82;101308.88;5017850;28;21392;-79
2022/08/14 01:41:16;;;;;;;4.90;4.40;;;;;;;20.32;78.98;101298.34;4999037;28;20037;-79
2022/08/14 01:43:47;;;;;;;5.10;4.60;;;;;;;20.34;79.26;101298.25;5016228;28;20029;-78
2022/08/14 01:46:14;;;;;;;6.03;4.75;;;;;;;20.31;79.44;101298.47;5015330;28;20460;-77
2022/08/14 01:48:43;;;;;;;4.82;4.10;;;;;;;20.30;79.46;101291.38;5015662;28;20060;-78
2022/08/14 01:51:13;;;;;;;6.43;4.68;;;;;;;20.31;79.96;101293.09;5016932;28;20034;-78
2022/08/14 01:53:41;;;;;;;6.50;4.97;;;;;;;20.29;79.77;101292.38;5015743;28;20038;-79
2022/08/14 01:56:07;;;;;;;5.45;4.80;;;;;;;20.27;79.63;101289.81;5016436;28;20041;-78
2022/08/14 01:58:33;;;;;;;5.18;4.65;;;;;;;20.27;79.47;101280.91;4997731;28;20384;-79
2022/08/14 02:00:59;;;;;;;5.32;4.57;;;;;;;20.26;79.64;101274.66;5019816;28;20116;-79
2022/08/14 02:03:29;;;;;;;5.40;4.80;;;;;;;20.26;79.44;101276.50;5020176;28;20068;-79
2022/08/14 02:06:00;;;;;;;5.95;4.82;;;;;;;20.21;79.43;101272.34;5017836;28;20484;-79
2022/08/14 02:08:28;;;;;;;5.68;4.55;;;;;;;20.18;79.62;101272.59;5017581;28;20509;-80
2022/08/14 02:11:15;;;;;;;7.28;5.10;;;;;;;20.14;79.66;101263.06;5004823;28;20375;-79
2022/08/14 02:13:47;;;;;;;5.40;4.80;;;;;;;20.11;79.88;101273.19;5004557;28;20134;-79
2022/08/14 02:16:15;;;;;;;5.63;5.03;;;;;;;20.06;79.74;101265.50;5020256;28;20032;-79
2022/08/14 02:18:44;;;;;;;5.78;4.85;;;;;;;20.06;79.92;101260.13;5017995;28;20075;-79
2022/08/14 02:21:17;;;;;;;6.75;5.25;;;;;;;20.02;79.85;101253.28;5019404;28;20052;-79
2022/08/14 02:23:48;;;;;;;6.68;5.32;;;;;;;19.97;80.16;101248.28;5017796;28;20040;-79
2022/08/14 02:26:22;;;;;;;8.00;5.30;;;;;;;19.91;80.51;101240.66;5018479;28;20484;-79
2022/08/14 02:28:49;;;;;;;6.00;5.38;;;;;;;19.84;80.33;101251.06;5020372;28;20591;-79
2022/08/14 02:31:16;;;;;;;6.45;5.68;;;;;;;19.80;80.51;101249.56;5025276;28;20040;-79
2022/08/14 02:33:42;;;;;;;6.10;5.15;;;;;;;19.78;80.96;101259.59;5026306;28;20116;-80
2022/08/14 02:36:09;;;;;;;7.35;5.88;;;;;;;19.75;80.78;101246.38;5022685;28;20050;-79
2022/08/14 02:38:35;;;;;;;7.10;5.65;;;;;;;19.67;81.27;101239.78;5022234;28;20021;-80
2022/08/14 02:41:01;;;;;;;7.43;5.88;;;;;;;19.65;81.46;101246.25;5026090;28;20502;-79
2022/08/14 02:43:31;;;;;;;6.55;5.32;;;;;;;19.62;81.89;101241.97;5024007;28;20114;-80
2022/08/14 02:45:57;;;;;;;6.93;5.78;;;;;;;19.60;81.83;101237.72;5024590;28;20034;-79
2022/08/14 02:48:35;;;;;;;6.22;5.57;;;;;;;19.58;82.14;101234.28;5026304;28;20040;-79
2022/08/14 02:51:28;;;;;;;7.45;5.97;;;;;;;19.55;83.35;101230.00;5025505;28;21292;-80
2022/08/14 02:53:54;;;;;;;6.90;6.03;;;;;;;19.51;82.37;101233.91;5023737;28;20055;-79
2022/08/14 02:56:20;;;;;;;6.65;5.80;;;;;;;19.48;82.53;101228.75;5024806;28;20038;-79
2022/08/14 02:58:48;;;;;;;7.78;6.00;;;;;;;19.44;82.76;101221.94;5019799;28;20412;-79
2022/08/14 03:01:15;;;;;;;9.20;6.10;;;;;;;19.41;83.10;101223.88;5005670;28;20361;-79
2022/08/14 03:03:42;;;;;;;8.45;6.35;;;;;;;19.35;82.86;101221.66;5024459;28;20103;-79
2022/08/14 03:06:08;;;;;;;9.18;6.45;;;;;;;19.33;83.55;101220.94;5006614;28;20053;-79
2022/08/14 03:08:36;;;;;;;8.23;5.85;;;;;;;19.27;83.50;101218.72;5025622;28;20025;-80
2022/08/14 03:11:08;;;;;;;8.48;6.80;;;;;;;19.22;84.02;101204.78;5025946;28;20029;-79
2022/08/14 03:13:35;;;;;;;7.75;6.20;;;;;;;19.18;84.12;101208.69;5024811;28;20121;-79
2022/08/14 03:16:02;;;;;;;9.77;6.60;;;;;;;19.11;84.52;101209.16;5024760;28;20534;-79
2022/08/14 03:18:28;;;;;;;7.97;6.55;;;;;;;19.06;84.42;101208.66;5022360;28;20096;-79
2022/08/14 03:20:57;;;;;;;10.25;6.45;;;;;;;19.03;84.75;101208.91;5023947;28;20052;-79
2022/08/14 03:23:25;;;;;;;7.30;6.07;;;;;;;19.01;85.02;101210.78;5024192;28;20134;-79
2022/08/14 03:25:51;;;;;;;8.77;6.63;;;;;;;18.98;85.31;101206.53;5023199;28;20028;-79
2022/08/14 03:28:17;;;;;;;9.90;6.60;;;;;;;18.97;85.39;101209.31;5009035;28;20030;-79
2022/08/14 03:30:42;;;;;;;10.13;6.40;;;;;;;18.93;86.00;101199.78;5026376;28;20041;-79
2022/08/14 03:33:09;;;;;;;8.90;7.10;;;;;;;18.91;86.43;101197.22;5024858;28;20037;-79
2022/08/14 03:35:35;;;;;;;7.07;5.85;;;;;;;18.89;86.55;101201.84;4990856;28;20033;-79
2022/08/14 03:38:07;;;;;;;8.45;6.60;;;;;;;18.88;87.32;101189.41;5024618;28;20029;-79
2022/08/14 03:40:33;;;;;;;8.75;7.00;;;;;;;18.90;86.85;101195.50;5016514;28;20826;-79
2022/08/14 03:42:58;;;;;;;9.73;6.60;;;;;;;18.91;86.83;101201.75;5022988;28;20120;-79
2022/08/14 03:45:24;;;;;;;8.02;6.63;;;;;;;18.92;86.70;101198.06;5006956;28;20088;-79
2022/08/14 03:47:50;;;;;;;7.53;6.32;;;;;;;18.93;87.29;101199.78;5020650;28;20033;-79
2022/08/14 03:50:15;;;;;;;7.38;6.18;;;;;;;18.93;87.33;101197.97;5021400;28;20536;-79
2022/08/14 03:52:43;;;;;;;7.60;6.20;;;;;;;18.95;87.55;101195.19;5022712;28;20468;-78
2022/08/14 03:55:13;;;;;;;9.00;7.18;;;;;;;18.96;87.97;101205.78;5023389;28;20045;-78
2022/08/14 03:57:39;;;;;;;8.18;6.95;;;;;;;18.96;88.12;101202.25;5008197;28;20492;-79
2022/08/14 04:00:12;;;;;;;9.13;6.95;;;;;;;18.96;88.14;101207.63;5037892;28;20083;-78
2022/08/14 04:02:39;;;;;;;10.20;6.35;;;;;;;18.96;88.35;101196.88;5023218;28;20787;-78
2022/08/14 04:05:09;;;;;;;8.68;7.03;;;;;;;18.96;88.86;101194.19;5041736;28;20059;-78
2022/08/14 04:07:37;;;;;;;9.80;6.40;;;;;;;18.97;88.55;101188.69;5025259;28;20037;-79
2022/08/14 04:10:04;;;;;;;8.05;6.43;;;;;;;18.97;88.21;101187.88;5038910;28;20036;-79
2022/08/14 04:12:29;;;;;;;7.50;6.28;;;;;;;18.96;88.89;101192.34;5040419;28;20045;-79
2022/08/14 04:14:55;;;;;;;10.45;7.10;;;;;;;18.96;89.26;101183.47;5036325;28;20110;-79
2022/08/14 04:17:21;;;;;;;10.57;6.72;;;;;;;18.96;89.08;101186.16;5038974;28;20029;-79
2022/08/14 04:19:46;;;;;;;8.90;6.88;;;;;;;18.94;88.70;101177.34;5040677;28;20432;-79
2022/08/14 04:22:12;;;;;;;10.35;6.70;;;;;;;18.92;89.07;101171.25;5040327;28;20067;-79
2022/08/14 04:24:39;;;;;;;13.98;7.30;;;;;;;18.89;88.83;101174.19;5043063;28;20125;-78
2022/08/14 04:27:09;;;;;;;10.52;7.05;;;;;;;18.86;89.26;101173.41;5041054;28;20039;-79
2022/08/14 04:29:42;;;;;;;9.23;7.05;;;;;;;18.83;89.18;101170.13;5021627;28;20029;-79
2022/08/14 04:32:09;;;;;;;8.30;6.63;;;;;;;18.81;89.02;101169.38;5026383;28;20037;-79
2022/08/14 04:34:38;;;;;;;9.30;6.82;;;;;;;18.79;89.54;101164.13;5022679;28;20032;-79
2022/08/14 04:45:22;;;;;;;9.57;7.15;;;;;;;18.83;89.48;101160.25;5039066;28;20578;-78
2022/08/14 04:50:36;;;;;;;9.38;7.05;;;;;;;18.89;89.47;101163.47;5024030;28;20740;-78
2022/08/14 04:53:02;;;;;;;9.02;7.13;;;;;;;18.89;89.53;101168.81;5038537;28;20037;-79
2022/08/14 04:55:28;;;;;;;12.23;7.43;;;;;;;18.92;89.52;101168.56;5040177;28;20491;-79
2022/08/14 04:57:55;;;;;;;8.63;7.03;;;;;;;18.94;89.97;101164.81;5040104;28;20037;-78
2022/08/14 05:00:21;;;;;;;8.90;6.85;;;;;;;18.98;89.80;101168.97;5038516;28;20053;-78
2022/08/14 05:02:48;;;;;;;9.38;7.25;;;;;;;19.02;90.16;101168.72;5024713;28;20040;-78
2022/08/14 05:05:14;;;;;;;8.80;6.93;;;;;;;19.05;89.97;101166.69;5040520;28;20082;-78
2022/08/14 05:07:41;;;;;;;10.00;7.32;;;;;;;19.09;89.93;101170.88;5039035;28;20093;-79
2022/08/14 05:10:07;;;;;;;10.43;7.35;;;;;;;19.14;89.54;101175.88;5026330;28;20380;-79
2022/08/14 05:12:33;;;;;;;11.27;7.05;;;;;;;19.17;89.50;101174.78;5039736;28;20025;-78
2022/08/14 05:14:58;;;;;;;9.77;6.75;;;;;;;19.21;89.60;101174.44;5037936;28;20043;-78
2022/08/14 05:17:25;;;;;;;9.70;6.78;;;;;;;19.24;89.44;101170.66;5040620;28;20075;-79
2022/08/14 05:19:51;;;;;;;9.90;7.22;;;;;;;19.27;89.43;101168.59;5042444;28;20119;-79
2022/08/14 05:22:18;;;;;;;9.45;6.80;;;;;;;19.31;89.56;101171.88;5039295;28;20541;-79
2022/08/14 05:24:48;;;;;;;8.45;6.85;;;;;;;19.35;89.66;101167.13;5039164;28;20021;-78
2022/08/14 05:27:13;;;;;;;7.85;6.32;;;;;;;19.38;89.05;101167.75;5025451;28;20084;-78
2022/08/14 05:29:43;;;;;;;9.65;7.00;;;;;;;19.41;89.30;101163.97;5037886;28;20033;-79
2022/08/14 05:32:09;;;;;;;10.77;7.68;;;;;;;19.44;89.03;101157.50;5040071;28;20032;-78
2022/08/14 05:34:35;;;;;;;8.77;6.80;;;;;;;19.51;88.98;101161.44;5038852;28;20045;-78
2022/08/14 05:37:01;;;;;;;10.30;7.65;;;;;;;19.54;88.80;101163.84;5020588;28;20356;-78
2022/08/14 05:39:27;;;;;;;9.55;7.47;;;;;;;19.58;89.35;101154.59;5024968;28;20387;-78
2022/08/14 05:41:53;;;;;;;9.48;7.53;;;;;;;19.64;88.69;101151.44;5034816;28;20033;-78
2022/08/14 05:44:19;;;;;;;8.43;6.63;;;;;;;19.68;88.96;101142.13;5037302;28;20368;-78
2022/08/14 05:46:45;;;;;;;12.07;7.57;;;;;;;19.72;88.66;101140.06;5037798;28;20134;-78
2022/08/14 05:49:10;;;;;;;8.80;7.07;;;;;;;19.79;88.72;101135.06;5037603;28;20037;-78
2022/08/14 05:51:36;;;;;;;8.48;6.88;;;;;;;19.84;88.52;101124.81;5039233;28;20040;-79
2022/08/14 05:54:01;;;;;;;8.30;6.97;;;;;;;19.91;88.22;101130.53;5038721;28;20036;-78
2022/08/14 05:56:26;;;;;;;8.65;6.97;;;;;;;19.95;88.02;101127.50;5040423;28;20032;-78
2022/08/14 05:58:53;;;;;;;9.73;7.28;;;;;;;20.04;88.12;101125.06;5014821;28;20409;-79
2022/08/14 06:01:18;;;;;;;8.48;6.65;;;;;;;20.11;88.01;101123.56;5016172;28;20367;-79
2022/08/14 06:03:44;;;;;;;8.60;7.03;;;;;;;20.20;87.99;101128.19;4992186;28;20028;-78
2022/08/14 06:06:09;;;;;;;9.27;7.20;;;;;;;20.29;87.84;101117.66;5016137;28;20048;-78
2022/08/14 06:08:35;;;;;;;9.65;6.93;;;;;;;20.45;87.57;101114.53;5016167;28;20080;-78
2022/08/14 06:11:04;;;;;;;9.57;7.28;;;;;;;20.69;87.31;101116.16;5016231;28;20532;-79
2022/08/14 06:13:36;;;;;;;10.10;6.85;;;;;;;20.93;86.60;101118.63;5012565;28;20395;-78
2022/08/14 06:16:01;;;;;;;7.93;6.38;;;;;;;21.14;85.85;101117.78;5013161;28;20029;-79
2022/08/14 06:18:27;;;;;;;8.05;6.65;;;;;;;21.33;85.41;101118.84;5016133;28;20044;-79
2022/08/14 06:20:53;;;;;;;7.05;6.28;;;;;;;21.49;84.95;101107.59;4976188;28;20128;-78
2022/08/14 06:23:26;;;;;;;7.65;5.82;;;;;;;21.67;84.49;101102.41;5016659;28;20044;-79
2022/08/14 06:25:51;;;;;;;9.70;6.55;;;;;;;21.84;84.17;101101.78;5015000;28;20115;-79
2022/08/14 06:28:24;;;;;;;8.55;6.82;;;;;;;22.01;84.09;101095.88;4996138;28;20029;-79
2022/08/14 06:30:53;;;;;;;8.02;6.35;;;;;;;22.17;83.47;101100.75;5016135;28;20045;-79
2022/08/14 06:33:20;;;;;;;7.80;6.63;;;;;;;22.31;82.98;101100.31;5016505;28;20160;-79
2022/08/14 06:35:46;;;;;;;7.38;6.30;;;;;;;22.45;82.60;101107.13;5013935;28;20052;-79
2022/08/14 06:38:19;;;;;;;7.15;6.35;;;;;;;22.57;82.29;101102.50;5014384;28;20033;-79
2022/08/14 06:40:46;;;;;;;7.88;6.00;;;;;;;22.69;82.04;101105.03;5016475;28;20445;-79
2022/08/14 06:43:12;;;;;;;7.55;6.07;;;;;;;22.78;81.42;101107.72;5016216;28;20043;-79
2022/08/14 06:45:40;;;;;;;8.75;6.30;;;;;;;22.89;81.37;101106.69;5014898;28;20071;-79
2022/08/14 06:48:15;;;;;;;7.10;5.55;;;;;;;23.01;80.99;101103.84;5015531;28;20064;-79
2022/08/14 06:50:45;;;;;;;6.93;5.75;;;;;;;23.15;80.93;101106.06;5015416;28;20562;-79
2022/08/14 06:53:13;;;;;;;6.53;5.45;;;;;;;23.31;80.69;101115.47;4996896;28;20045;-79
2022/08/14 06:55:41;;;;;;;7.57;6.10;;;;;;;23.43;80.05;101111.56;5002283;28;20121;-79
2022/08/14 06:58:10;;;;;;;6.68;5.60;;;;;;;23.55;79.53;101111.38;5014682;28;20033;-80
2022/08/14 07:00:36;;;;;;;6.40;5.57;;;;;;;23.61;79.14;101108.09;5018982;28;20042;-79
2022/08/14 07:05:48;;;;;;;7.25;5.47;;;;;;;23.85;79.16;101112.94;5018098;28;20041;-80
2022/08/14 07:08:19;;;;;;;6.03;5.43;;;;;;;24.06;78.94;101113.66;5016258;28;20038;-80
2022/08/14 07:10:50;;;;;;;7.25;5.60;;;;;;;24.21;77.69;101112.19;5017061;28;20120;-79
2022/08/14 07:13:20;;;;;;;6.47;5.38;;;;;;;24.31;77.52;101112.09;5018357;28;20045;-80
2022/08/14 07:15:50;;;;;;;6.80;5.45;;;;;;;24.37;76.30;101107.94;5020489;28;20029;-80
2022/08/14 07:18:26;;;;;;;6.65;5.82;;;;;;;24.37;75.89;101111.50;5008408;28;20434;-80
2022/08/14 07:20:53;;;;;;;6.00;5.40;;;;;;;24.52;76.49;101103.66;5004091;28;20497;-80
2022/08/14 07:23:22;;;;;;;7.07;5.57;;;;;;;24.66;76.14;101104.13;5020831;28;20037;-80
2022/08/14 07:25:53;;;;;;;6.20;5.32;;;;;;;24.81;76.27;101101.72;5004890;28;20029;-80
2022/08/14 07:28:24;;;;;;;6.18;5.57;;;;;;;24.94;75.70;101113.00;5022251;28;20044;-81
2022/08/14 07:30:56;;;;;;;6.22;5.35;;;;;;;25.00;74.59;101106.09;5003310;28;20502;-80
2022/08/14 07:33:27;;;;;;;8.27;5.40;;;;;;;25.07;74.83;101109.84;5006798;28;20487;-79
2022/08/14 07:35:54;;;;;;;5.95;5.28;;;;;;;25.15;74.48;101113.63;5023274;28;20405;-80
2022/08/14 07:38:21;;;;;;;7.50;5.60;;;;;;;25.25;74.59;101100.84;5008184;28;20044;-80
2022/08/14 07:40:47;;;;;;;5.90;5.25;;;;;;;25.27;74.23;101098.81;5021472;28;20102;-80
2022/08/14 07:43:13;;;;;;;5.80;5.22;;;;;;;25.34;74.14;101097.16;5020730;28;20029;-80
2022/08/14 07:45:40;;;;;;;5.72;5.22;;;;;;;25.49;73.79;101099.28;5020958;28;20369;-79
2022/08/14 07:48:06;;;;;;;5.28;4.78;;;;;;;25.60;73.70;101092.75;5019409;28;20057;-80
2022/08/14 07:50:33;;;;;;;5.80;5.18;;;;;;;25.73;73.93;101095.00;5022818;28;20033;-80
2022/08/14 07:52:59;;;;;;;5.68;4.78;;;;;;;25.85;73.20;101092.81;5004167;28;20400;-80
2022/08/14 07:55:27;;;;;;;5.30;4.80;;;;;;;26.00;72.69;101079.47;5021480;28;20032;-81
2022/08/14 07:57:53;;;;;;;5.97;4.88;;;;;;;26.13;72.29;101087.97;5021789;28;20057;-82
2022/08/14 08:00:22;;;;;;;6.85;4.97;;;;;;;26.24;71.14;101084.13;5005586;28;20515;-81
2022/08/14 08:02:53;;;;;;;5.35;4.78;;;;;;;26.34;71.09;101078.53;5002059;28;20052;-81
2022/08/14 08:05:20;;;;;;;7.35;5.30;;;;;;;26.40;70.67;101075.16;5007715;28;20041;-80
2022/08/14 08:07:46;;;;;;;6.55;5.25;;;;;;;26.54;70.71;101086.34;5007379;28;20304;-81
2022/08/14 08:10:30;;;;;;;5.82;5.22;;;;;;;26.62;69.86;101078.19;5017777;28;20515;-81
2022/08/14 08:13:11;;;;;;;5.50;5.00;;;;;;;26.78;69.39;101088.19;5014714;28;20129;-79
2022/08/14 08:15:55;;;;;;;5.45;4.70;;;;;;;26.89;69.32;101077.97;5020741;28;20307;-81
2022/08/14 08:18:21;;;;;;;5.60;4.97;;;;;;;27.00;68.52;101079.53;5025835;28;20106;-81
2022/08/14 08:20:49;;;;;;;5.43;4.93;;;;;;;27.14;68.55;101077.97;5015522;28;20505;-80
2022/08/14 08:23:17;;;;;;;5.50;5.00;;;;;;;27.25;67.93;101080.31;4991741;28;20709;-81
2022/08/14 08:25:46;;;;;;;6.07;5.05;;;;;;;27.40;67.60;101075.00;5012534;28;20033;-79
2022/08/14 08:28:19;;;;;;;6.43;4.97;;;;;;;27.55;66.46;101066.94;5017959;28;20095;-80
2022/08/14 08:30:56;;;;;;;5.28;4.65;;;;;;;27.69;65.59;101067.25;5016705;28;20033;-80
2022/08/14 08:33:27;;;;;;;6.03;4.53;;;;;;;27.76;65.50;101069.09;4990863;28;20041;-79
2022/08/14 08:35:56;;;;;;;5.25;4.75;;;;;;;27.85;65.56;101063.59;5019955;28;20037;-79
2022/08/14 08:38:24;;;;;;;6.70;4.70;;;;;;;27.96;65.39;101068.63;5017757;28;20025;-80
2022/08/14 08:40:50;;;;;;;5.85;4.70;;;;;;;28.08;65.01;101060.91;5016438;28;21475;-79
2022/08/14 08:43:20;;;;;;;5.57;4.82;;;;;;;28.24;64.02;101064.56;4994144;28;20026;-80
2022/08/14 08:46:02;;;;;;;6.10;4.60;;;;;;;28.36;63.18;101056.81;5021167;28;20535;-80
2022/08/14 08:48:30;;;;;;;4.82;4.43;;;;;;;28.49;63.12;101051.59;5025452;28;20116;-80
2022/08/14 08:51:00;;;;;;;5.00;4.50;;;;;;;28.54;62.38;101045.59;5024645;28;20037;-80
2022/08/14 08:53:33;;;;;;;4.97;4.38;;;;;;;28.65;61.93;101041.59;5025240;28;20492;-80
2022/08/14 08:55:59;;;;;;;4.78;4.28;;;;;;;28.76;61.88;101043.00;5008496;28;20036;-80
2022/08/14 08:58:25;;;;;;;6.50;4.10;;;;;;;28.81;61.41;101038.69;5022475;28;20745;-80
2022/08/14 09:00:53;;;;;;;5.70;4.63;;;;;;;28.92;60.84;101034.69;5015995;28;20037;-80
2022/08/14 09:03:23;;;;;;;5.82;4.32;;;;;;;28.97;60.66;101031.41;5010795;28;20037;-80
2022/08/14 09:05:52;;;;;;;4.45;4.05;;;;;;;29.03;60.55;101016.19;5008643;28;20038;-80
2022/08/14 09:08:24;;;;;;;4.85;4.03;;;;;;;29.16;60.22;101010.91;5016883;28;20038;-80
2022/08/14 09:10:51;;;;;;;4.43;4.00;;;;;;;29.22;59.93;101012.03;5009401;28;20038;-80
2022/08/14 09:13:18;;;;;;;4.03;3.63;;;;;;;29.31;59.96;101002.72;4996107;28;20563;-80
2022/08/14 09:15:46;;;;;;;4.47;4.07;;;;;;;29.45;59.54;101002.91;5016873;28;20034;-80
2022/08/14 09:18:17;;;;;;;4.53;4.13;;;;;;;29.51;58.93;100992.09;5015984;28;20029;-80
2022/08/14 09:20:47;;;;;;;3.65;3.35;;;;;;;29.57;59.01;101009.53;5014222;28;21444;-80
2022/08/14 09:23:13;;;;;;;4.38;3.88;;;;;;;29.59;58.82;101010.22;5013576;28;20168;-81
2022/08/14 09:25:43;;;;;;;4.35;3.95;;;;;;;29.67;58.59;101004.63;5013447;28;20159;-81
2022/08/14 09:28:09;;;;;;;4.53;3.88;;;;;;;29.80;58.51;101005.81;4981971;28;20034;-81
2022/08/14 09:30:38;;;;;;;4.70;4.20;;;;;;;29.90;58.25;101005.50;4999620;28;20049;-81
2022/08/14 09:33:13;;;;;;;4.90;4.13;;;;;;;29.88;57.84;101004.84;4998186;28;20555;-80
2022/08/14 09:35:57;;;;;;;4.70;4.20;;;;;;;29.97;58.02;101003.69;5000747;28;20028;-81
2022/08/14 09:38:40;;;;;;;4.43;4.00;;;;;;;30.02;56.64;101001.22;4991727;28;20483;-81
2022/08/14 09:41:27;;;;;;;4.72;4.30;;;;;;;30.05;56.36;100999.94;5015181;28;20548;-80
2022/08/14 09:44:06;;;;;;;4.40;3.97;;;;;;;30.11;56.27;100998.38;5009763;28;20037;-81
2022/08/14 09:46:35;;;;;;;4.20;3.80;;;;;;;30.17;57.90;100990.22;5016675;28;20045;-81
2022/08/14 09:49:03;;;;;;;4.30;3.78;;;;;;;30.28;57.63;100991.59;5017384;28;20057;-80
2022/08/14 09:51:29;;;;;;;4.80;4.30;;;;;;;30.38;56.20;100991.25;5015818;28;20047;-81
2022/08/14 09:54:11;;;;;;;3.95;3.65;;;;;;;30.42;54.16;100986.22;5016861;28;20056;-81
2022/08/14 09:56:49;;;;;;;3.65;3.35;;;;;;;30.51;53.60;100976.84;5011444;28;20053;-81
2022/08/14 09:59:20;;;;;;;4.85;4.07;;;;;;;30.47;54.82;100983.75;5015158;28;20060;-81
2022/08/14 10:01:47;;;;;;;4.13;3.73;;;;;;;30.48;54.48;100979.97;5024846;28;20076;-80
2022/08/14 10:04:19;;;;;;;4.00;3.60;;;;;;;30.54;53.28;100976.44;5040462;28;20338;-80
2022/08/14 10:06:44;;;;;;;4.03;3.67;;;;;;;30.58;53.03;100972.28;5031851;28;20083;-81
2022/08/14 10:09:10;;;;;;;5.63;4.13;;;;;;;30.59;52.90;100973.09;5040547;28;20036;-80
2022/08/14 10:11:37;;;;;;;4.30;3.90;;;;;;;30.54;52.09;100979.19;5034553;28;20106;-81
2022/08/14 10:14:17;;;;;;;4.22;3.67;;;;;;;30.55;50.61;100980.84;5031359;28;20419;-80
2022/08/14 10:16:55;;;;;;;4.30;3.90;;;;;;;30.54;50.43;100964.69;5029923;28;20044;-80
2022/08/14 10:19:26;;;;;;;4.20;3.80;;;;;;;30.52;51.04;100961.28;5017664;28;21592;-81
2022/08/14 10:22:04;;;;;;;5.13;3.90;;;;;;;30.46;50.35;100958.31;5027192;28;20029;-81
2022/08/14 10:24:45;;;;;;;4.30;3.60;;;;;;;30.35;50.63;100950.69;5026573;28;20068;-81
2022/08/14 10:27:22;;;;;;;4.07;3.67;;;;;;;30.26;50.26;100946.41;5041051;28;20068;-80
2022/08/14 10:29:53;;;;;;;13.35;9.68;;;;;;;30.26;50.73;100930.03;5024336;28;20059;-81
2022/08/14 10:32:21;;;;;;;5.10;4.60;;;;;;;30.22;50.98;100933.16;5030665;28;20045;-80
2022/08/14 10:34:48;;;;;;;5.32;4.20;;;;;;;30.09;50.93;100933.06;4982268;28;20156;-80
2022/08/14 10:37:15;;;;;;;4.28;3.88;;;;;;;30.02;50.89;100933.00;5031613;28;20056;-80
2022/08/14 10:39:43;;;;;;;4.88;4.20;;;;;;;30.00;50.88;100928.78;5037598;28;20063;-80
2022/08/14 10:42:13;;;;;;;4.65;3.85;;;;;;;30.01;50.60;100922.28;5042041;28;20669;-79
2022/08/14 10:44:44;;;;;;;4.38;3.88;;;;;;;29.99;51.01;100922.47;5042019;28;20035;-80
2022/08/14 10:47:10;;;;;;;6.60;3.95;;;;;;;29.98;50.66;100912.59;5041656;28;20063;-81
2022/08/14 10:49:37;;;;;;;4.07;3.78;;;;;;;29.95;50.36;100913.81;5024856;28;20671;-87
2022/08/14 10:52:11;;;;;;;4.45;4.05;;;;;;;29.92;49.53;100918.84;5026149;28;20082;-80
2022/08/14 10:54:43;;;;;;;4.50;4.10;;;;;;;29.88;50.00;100907.47;5040727;28;20151;-80
2022/08/14 10:57:16;;;;;;;4.00;3.65;;;;;;;29.85;49.89;100905.13;5045283;28;20036;-80
2022/08/14 10:59:44;;;;;;;4.72;4.03;;;;;;;29.83;50.23;100904.47;5023987;28;20051;-80
2022/08/14 11:02:28;;;;;;;4.00;3.60;;;;;;;29.82;49.95;100897.34;5025155;28;20072;-80
2022/08/14 11:05:00;;;;;;;4.07;3.53;;;;;;;29.81;50.39;100906.56;5042602;28;20036;-80
2022/08/14 11:07:27;;;;;;;4.72;4.10;;;;;;;29.80;50.56;100900.25;5023460;28;20056;-80
2022/08/14 11:10:00;;;;;;;5.22;3.88;;;;;;;29.80;49.74;100900.25;5046085;28;20076;-79
2022/08/14 11:12:38;;;;;;;4.03;3.63;;;;;;;29.81;49.34;100903.84;5025477;28;20675;-79
2022/08/14 11:15:05;;;;;;;4.43;3.63;;;;;;;29.78;49.31;100893.31;5042740;28;20029;-80
2022/08/14 11:17:34;;;;;;;5.53;3.63;;;;;;;29.77;49.28;100888.91;5041772;28;20041;-79
2022/08/14 11:20:06;;;;;;;4.88;4.00;;;;;;;29.76;49.63;100892.69;5044015;28;20040;-80
2022/08/14 11:22:32;;;;;;;4.45;3.67;;;;;;;29.76;49.66;100893.53;5042206;28;20589;-80
2022/08/14 11:25:06;;;;;;;4.10;3.70;;;;;;;29.79;48.90;100895.03;5043362;28;20108;-80
2022/08/14 11:27:32;;;;;;;5.28;3.83;;;;;;;29.76;49.17;100892.69;5043068;28;20392;-80
2022/08/14 11:30:02;;;;;;;4.22;3.53;;;;;;;29.79;49.30;100890.41;5023203;28;20495;-80
2022/08/14 11:32:29;;;;;;;4.25;3.78;;;;;;;29.83;49.26;100890.84;5041197;28;20051;-80
2022/08/14 11:34:56;;;;;;;4.30;3.90;;;;;;;29.83;49.05;100881.84;5038222;28;20030;-81
2022/08/14 11:37:23;;;;;;;4.47;3.78;;;;;;;29.85;48.73;100882.47;5041686;28;20044;-81
2022/08/14 11:39:48;;;;;;;3.83;3.47;;;;;;;29.85;48.53;100879.75;5043571;28;20056;-80
2022/08/14 11:42:25;;;;;;;4.40;3.75;;;;;;;29.91;47.91;100879.78;5021877;28;20645;-81
2022/08/14 11:44:52;;;;;;;3.75;3.38;;;;;;;29.95;48.29;100874.78;5041566;28;20037;-80
2022/08/14 11:47:18;;;;;;;6.10;3.63;;;;;;;29.98;47.92;100868.94;5042656;28;20271;-80
2022/08/14 11:49:48;;;;;;;4.18;3.78;;;;;;;29.96;47.38;100871.03;5040632;28;20044;-81